createdAt,value
2018-08-09T00:01:06.391Z,1.57
2018-08-09T00:03:33.851Z,2.07
2018-08-09T00:06:01.415Z,1.43
2018-08-09T00:08:28.872Z,1.93
2018-08-09T00:10:56.326Z,3.07
2018-08-09T00:13:23.897Z,2.40
2018-08-09T00:15:51.467Z,1.80
2018-08-09T00:18:19.034Z,2.00
2018-08-09T00:20:46.489Z,2.47
2018-08-09T00:23:13.952Z,2.80
2018-08-09T00:25:41.518Z,3.83
2018-08-09T00:28:08.976Z,2.77
2018-08-09T00:30:36.545Z,2.23
2018-08-09T00:33:04.016Z,2.17
2018-08-09T00:35:33.004Z,2.40
2018-08-09T00:38:00.568Z,2.13
2018-08-09T00:40:28.131Z,1.50
2018-08-09T00:42:55.578Z,2.50
2018-08-09T00:45:23.155Z,4.60
2018-08-09T00:47:50.608Z,3.80
2018-08-09T00:50:18.190Z,3.77
2018-08-09T00:52:45.811Z,6.20
2018-08-09T00:55:13.263Z,2.83
2018-08-09T00:57:40.730Z,2.43
2018-08-09T01:00:08.195Z,2.40
2018-08-09T01:02:35.657Z,3.33
2018-08-09T01:05:03.118Z,2.40
2018-08-09T01:07:30.590Z,2.53
2018-08-09T01:09:58.035Z,3.30
2018-08-09T01:12:25.506Z,3.30
2018-08-09T01:14:52.964Z,5.67
2018-08-09T01:17:20.439Z,2.43
2018-08-09T01:19:47.894Z,3.63
2018-08-09T01:22:15.358Z,3.80
2018-08-09T01:24:42.854Z,4.60
2018-08-09T01:27:10.320Z,4.30
2018-08-09T01:29:37.787Z,3.47
2018-08-09T01:32:05.241Z,4.70
2018-08-09T01:34:32.815Z,3.90
2018-08-09T01:37:01.042Z,3.77
2018-08-09T01:39:28.508Z,5.27
2018-08-09T01:41:55.980Z,2.50
2018-08-09T01:44:23.482Z,2.70
2018-08-09T01:46:50.969Z,3.63
2018-08-09T01:49:19.203Z,3.80
2018-08-09T01:51:46.652Z,3.73
2018-08-09T01:54:14.140Z,4.80
2018-08-09T01:56:41.700Z,4.03
2018-08-09T01:59:09.169Z,2.50
2018-08-09T02:01:36.627Z,3.97
2018-08-09T02:04:04.188Z,4.17
2018-08-09T02:06:31.649Z,3.30
2018-08-09T02:08:59.100Z,4.63
2018-08-09T02:11:26.558Z,4.33
2018-08-09T02:13:54.007Z,3.87
2018-08-09T02:16:21.501Z,4.07
2018-08-09T02:18:49.060Z,3.53
2018-08-09T02:21:16.533Z,5.00
2018-08-09T02:23:43.983Z,4.13
2018-08-09T02:26:11.456Z,5.03
2018-08-09T02:28:39.012Z,4.83
2018-08-09T02:31:06.478Z,3.47
2018-08-09T02:33:33.938Z,3.37
2018-08-09T02:36:01.411Z,3.63
2018-08-09T02:38:28.870Z,3.20
2018-08-09T02:40:56.435Z,4.73
2018-08-09T02:43:23.895Z,3.43
2018-08-09T02:45:51.348Z,3.83
2018-08-09T02:48:18.915Z,3.50
2018-08-09T02:50:46.478Z,6.20
2018-08-09T02:53:14.044Z,3.90
2018-08-09T02:55:41.496Z,3.20
2018-08-09T02:58:09.073Z,3.97
2018-08-09T03:00:36.637Z,3.73
2018-08-09T03:03:04.107Z,5.00
2018-08-09T03:05:31.556Z,3.97
2018-08-09T03:07:59.015Z,5.87
2018-08-09T03:10:26.484Z,5.20
2018-08-09T03:12:54.048Z,4.93
2018-08-09T03:15:21.602Z,5.27
2018-08-09T03:17:49.068Z,3.67
2018-08-09T03:20:16.528Z,5.70
2018-08-09T03:22:43.985Z,4.70
2018-08-09T03:25:11.464Z,3.70
2018-08-09T03:27:38.917Z,6.83
2018-08-09T03:30:06.380Z,4.33
2018-08-09T03:32:33.829Z,4.67
2018-08-09T03:35:01.318Z,5.93
2018-08-09T03:37:28.780Z,3.73
2018-08-09T03:39:57.756Z,6.50
2018-08-09T03:42:25.227Z,5.23
2018-08-09T03:44:52.799Z,4.57
2018-08-09T03:47:20.352Z,6.20
2018-08-09T03:49:47.832Z,5.43
2018-08-09T03:52:15.276Z,4.33
2018-08-09T03:54:42.855Z,5.70
2018-08-09T03:57:10.315Z,4.77
2018-08-09T03:59:37.780Z,6.10
2018-08-09T04:02:05.226Z,8.07
2018-08-09T04:04:32.803Z,5.67
2018-08-09T04:07:00.267Z,4.93
2018-08-09T04:09:27.725Z,4.30
2018-08-09T04:11:55.359Z,4.20
2018-08-09T04:14:22.853Z,5.13
2018-08-09T04:16:50.312Z,5.20
2018-08-09T04:19:17.779Z,6.37
2018-08-09T04:21:45.356Z,6.50
2018-08-09T04:24:12.899Z,4.10
2018-08-09T04:26:40.357Z,5.67
2018-08-09T04:29:07.827Z,4.37
2018-08-09T04:31:35.387Z,4.27
2018-08-09T04:34:02.859Z,5.43
2018-08-09T04:36:30.316Z,6.23
2018-08-09T04:38:57.768Z,5.27
2018-08-09T04:41:25.351Z,4.47
2018-08-09T04:43:52.900Z,5.47
2018-08-09T04:46:20.459Z,4.30
2018-08-09T04:48:47.914Z,6.53
2018-08-09T04:51:15.376Z,5.90
2018-08-09T04:53:42.838Z,6.20
2018-08-09T04:56:10.288Z,6.73
2018-08-09T04:58:37.748Z,4.87
2018-08-09T05:01:05.207Z,5.40
2018-08-09T05:03:32.658Z,3.77
2018-08-09T05:06:00.130Z,6.53
2018-08-09T05:08:27.628Z,6.10
2018-08-09T05:10:55.180Z,6.47
2018-08-09T05:13:22.643Z,5.90
2018-08-09T05:15:50.180Z,5.90
2018-08-09T05:18:17.689Z,5.10
2018-08-09T05:20:45.158Z,2.80
2018-08-09T05:23:13.426Z,4.43
2018-08-09T05:25:40.837Z,7.47
2018-08-09T05:28:08.349Z,4.90
2018-08-09T05:30:35.907Z,4.63
2018-08-09T05:33:03.472Z,4.70
2018-08-09T05:35:30.927Z,5.57
2018-08-09T05:37:58.389Z,3.80
2018-08-09T05:40:25.859Z,5.57
2018-08-09T05:42:53.421Z,4.67
2018-08-09T05:45:21.035Z,6.17
2018-08-09T05:47:48.549Z,4.47
2018-08-09T05:50:16.005Z,5.47
2018-08-09T05:52:43.499Z,3.67
2018-08-09T05:55:11.000Z,5.20
2018-08-09T05:57:39.211Z,4.20
2018-08-09T06:00:06.682Z,4.80
2018-08-09T06:02:34.250Z,5.43
2018-08-09T06:05:01.800Z,3.90
2018-08-09T06:07:29.272Z,5.23
2018-08-09T06:09:56.841Z,7.43
2018-08-09T06:12:24.291Z,6.07
2018-08-09T06:14:51.748Z,5.90
2018-08-09T06:17:19.224Z,7.53
2018-08-09T06:19:46.791Z,4.63
2018-08-09T06:22:14.244Z,3.50
2018-08-09T06:24:41.811Z,2.90
2018-08-09T06:27:09.277Z,4.43
2018-08-09T06:29:36.751Z,5.57
2018-08-09T06:32:04.191Z,4.43
2018-08-09T06:34:31.652Z,4.50
2018-08-09T06:36:59.126Z,4.50
2018-08-09T06:39:26.577Z,5.03
2018-08-09T06:41:54.147Z,4.83
2018-08-09T06:44:21.609Z,4.47
2018-08-09T06:46:49.067Z,5.47
2018-08-09T06:49:16.543Z,6.00
2018-08-09T06:51:44.106Z,5.07
2018-08-09T06:54:11.669Z,3.43
2018-08-09T06:56:39.119Z,5.90
2018-08-09T06:59:06.584Z,5.40
2018-08-09T07:01:34.044Z,5.77
2018-08-09T07:04:01.495Z,4.37
2018-08-09T07:06:28.995Z,5.07
2018-08-09T07:08:56.547Z,5.50
2018-08-09T07:11:25.522Z,3.60
2018-08-09T07:13:52.989Z,3.33
2018-08-09T07:16:20.436Z,3.33
2018-08-09T07:18:47.896Z,3.63
2018-08-09T07:21:15.346Z,8.00
2018-08-09T07:23:42.806Z,5.83
2018-08-09T07:26:10.267Z,9.23
2018-08-09T07:28:37.752Z,3.90
2018-08-09T07:31:05.210Z,9.70
2018-08-09T07:33:32.654Z,7.93
2018-08-09T07:36:00.129Z,2.73
2018-08-09T07:38:27.581Z,5.57
2018-08-09T07:40:55.088Z,4.90
2018-08-09T07:43:22.551Z,8.23
2018-08-09T07:45:50.022Z,5.53
2018-08-09T07:48:17.568Z,6.23
2018-08-09T07:50:45.027Z,6.60
2018-08-09T07:53:12.495Z,6.13
2018-08-09T07:55:40.055Z,6.03
2018-08-09T07:58:07.500Z,7.03
2018-08-09T08:00:34.978Z,7.00
2018-08-09T08:03:02.449Z,8.90
2018-08-09T08:05:29.895Z,8.33
2018-08-09T08:07:57.468Z,9.03
2018-08-09T08:10:24.937Z,6.83
2018-08-09T08:12:52.496Z,7.30
2018-08-09T08:15:20.060Z,3.17
2018-08-09T08:17:47.611Z,5.23
2018-08-09T08:20:15.069Z,8.03
2018-08-09T08:22:42.540Z,6.70
2018-08-09T08:25:09.991Z,5.73
2018-08-09T08:27:37.452Z,4.23
2018-08-09T08:30:04.934Z,7.37
2018-08-09T08:32:32.485Z,5.33
2018-08-09T08:34:59.955Z,4.83
2018-08-09T08:37:27.419Z,4.00
2018-08-09T08:39:54.904Z,3.47
2018-08-09T08:42:22.355Z,4.00
2018-08-09T08:44:49.916Z,6.03
2018-08-09T08:47:17.366Z,4.63
2018-08-09T08:49:44.928Z,2.77
2018-08-09T08:52:12.512Z,2.80
2018-08-09T08:54:39.972Z,2.97
2018-08-09T08:57:07.427Z,2.40
2018-08-09T08:59:34.980Z,3.13
2018-08-09T09:02:02.459Z,3.03
2018-08-09T09:04:30.013Z,2.83
2018-08-09T09:06:57.474Z,2.23
2018-08-09T09:09:26.067Z,3.03
2018-08-09T09:11:53.512Z,2.87
2018-08-09T09:14:20.981Z,2.80
2018-08-09T09:16:48.428Z,2.23
2018-08-09T09:19:15.931Z,3.07
2018-08-09T09:21:43.347Z,2.23
2018-08-09T09:24:10.843Z,3.07
2018-08-09T09:26:38.295Z,3.03
2018-08-09T09:29:05.747Z,4.93
2018-08-09T09:31:33.213Z,2.20
2018-08-09T09:34:00.675Z,2.70
2018-08-09T09:36:28.291Z,2.37
2018-08-09T09:38:56.532Z,2.63
2018-08-09T09:41:24.051Z,3.30
2018-08-09T09:43:51.556Z,2.23
2018-08-09T09:46:19.022Z,3.07
2018-08-09T09:48:46.475Z,2.83
2018-08-09T09:51:13.935Z,2.70
2018-08-09T09:53:41.408Z,3.27
2018-08-09T09:56:08.874Z,1.97
2018-08-09T09:58:36.434Z,3.30
2018-08-09T10:01:03.904Z,1.67
2018-08-09T10:03:31.565Z,3.63
2018-08-09T10:05:59.020Z,1.53
2018-08-09T10:08:26.480Z,1.77
2018-08-09T10:10:53.931Z,1.60
2018-08-09T10:13:21.400Z,1.70
2018-08-09T10:15:48.980Z,2.80
2018-08-09T10:18:16.526Z,1.90
2018-08-09T10:20:44.004Z,1.60
2018-08-09T10:23:11.568Z,1.50
2018-08-09T10:25:39.028Z,1.77
2018-08-09T10:28:06.496Z,2.87
2018-08-09T10:30:33.959Z,2.10
2018-08-09T10:33:01.423Z,1.87
2018-08-09T10:35:29.679Z,1.67
2018-08-09T10:37:57.120Z,1.60
2018-08-09T10:40:24.622Z,3.87
2018-08-09T10:42:52.070Z,1.90
2018-08-09T10:45:19.643Z,2.37
2018-08-09T10:47:47.116Z,2.60
2018-08-09T10:50:14.671Z,1.93
2018-08-09T10:52:42.227Z,2.60
2018-08-09T10:55:09.797Z,3.37
2018-08-09T10:57:37.243Z,2.77
2018-08-09T11:00:04.724Z,3.37
2018-08-09T11:02:32.298Z,2.57
2018-08-09T11:04:59.842Z,1.90
2018-08-09T11:07:27.298Z,6.73
2018-08-09T11:09:54.759Z,3.63
2018-08-09T11:12:22.347Z,2.43
2018-08-09T11:14:49.787Z,3.93
2018-08-09T11:17:17.265Z,2.93
2018-08-09T11:19:44.729Z,7.90
2018-08-09T11:22:12.286Z,3.67
2018-08-09T11:24:39.849Z,3.13
2018-08-09T11:27:07.304Z,3.00
2018-08-09T11:29:34.894Z,4.07
2018-08-09T11:32:02.329Z,2.73
2018-08-09T11:34:29.803Z,2.93
2018-08-09T11:36:57.368Z,4.70
2018-08-09T11:39:24.832Z,3.30
2018-08-09T11:41:52.292Z,3.60
2018-08-09T11:44:19.757Z,3.53
2018-08-09T11:46:47.233Z,3.50
2018-08-09T11:49:14.684Z,2.73
2018-08-09T11:51:42.248Z,4.73
2018-08-09T11:54:09.708Z,2.67
2018-08-09T11:56:37.348Z,3.23
2018-08-09T11:59:04.746Z,4.30
2018-08-09T12:01:32.245Z,2.87
2018-08-09T12:03:59.666Z,3.27
2018-08-09T12:06:27.227Z,3.13
2018-08-09T12:08:54.784Z,3.77
2018-08-09T12:11:22.250Z,5.80
2018-08-09T12:13:49.693Z,5.40
2018-08-09T12:16:17.154Z,5.47
2018-08-09T12:18:44.630Z,4.73
2018-08-09T12:21:12.207Z,6.97
2018-08-09T12:23:39.672Z,7.07
2018-08-09T12:26:07.225Z,4.23
2018-08-09T12:28:34.680Z,4.63
2018-08-09T12:31:02.243Z,5.47
2018-08-09T12:33:29.700Z,5.07
2018-08-09T12:35:57.148Z,4.80
2018-08-09T12:38:24.604Z,4.83
2018-08-09T12:40:52.081Z,5.53
2018-08-09T12:43:19.526Z,4.93
2018-08-09T12:45:47.020Z,3.93
2018-08-09T12:48:14.486Z,4.60
2018-08-09T12:50:42.083Z,5.27
2018-08-09T12:53:09.611Z,6.63
2018-08-09T12:55:37.170Z,6.00
2018-08-09T12:58:04.643Z,4.83
2018-08-09T13:00:32.104Z,6.40
2018-08-09T13:02:59.680Z,5.90
2018-08-09T13:05:27.232Z,7.03
2018-08-09T13:07:54.796Z,7.77
2018-08-09T13:10:22.247Z,6.13
2018-08-09T13:12:50.707Z,6.83
2018-08-09T13:15:18.162Z,6.80
2018-08-09T13:17:45.623Z,7.43
2018-08-09T13:20:13.084Z,5.50
2018-08-09T13:22:40.548Z,5.73
2018-08-09T13:25:07.997Z,6.00
2018-08-09T13:27:35.463Z,6.63
2018-08-09T13:30:02.976Z,5.70
2018-08-09T13:32:30.449Z,7.80
2018-08-09T13:34:57.998Z,7.87
2018-08-09T13:37:25.463Z,6.87
2018-08-09T13:39:52.906Z,9.70
2018-08-09T13:42:20.367Z,7.20
2018-08-09T13:44:47.822Z,7.63
2018-08-09T13:47:15.329Z,7.60
2018-08-09T13:49:42.791Z,7.37
2018-08-09T13:52:11.057Z,9.17
2018-08-09T13:54:38.519Z,6.30
2018-08-09T13:57:05.972Z,7.63
2018-08-09T13:59:33.433Z,7.83
2018-08-09T14:02:00.879Z,7.67
2018-08-09T14:04:28.359Z,6.57
2018-08-09T14:06:55.833Z,7.17
2018-08-09T14:09:23.284Z,5.53
2018-08-09T14:11:50.950Z,5.77
2018-08-09T14:14:18.405Z,6.07
2018-08-09T14:16:45.861Z,7.47
2018-08-09T14:19:13.328Z,7.70
2018-08-09T14:21:40.906Z,7.70
2018-08-09T14:24:08.367Z,6.60
2018-08-09T14:26:35.817Z,8.53
2018-08-09T14:29:03.288Z,6.40
2018-08-09T14:31:30.753Z,6.67
2018-08-09T14:33:58.323Z,6.07
2018-08-09T14:36:25.879Z,7.70
2018-08-09T14:38:53.328Z,8.83
2018-08-09T14:41:20.913Z,7.17
2018-08-09T14:43:48.481Z,7.83
2018-08-09T14:46:16.042Z,5.40
2018-08-09T14:48:43.620Z,6.57
2018-08-09T14:51:11.073Z,8.03
2018-08-09T14:53:40.086Z,6.30
2018-08-09T14:56:07.528Z,5.97
2018-08-09T14:58:34.980Z,4.70
2018-08-09T15:01:02.452Z,5.77
2018-08-09T15:03:30.012Z,5.53
2018-08-09T15:05:57.569Z,6.97
2018-08-09T15:08:25.022Z,5.10
2018-08-09T15:10:52.506Z,5.67
2018-08-09T15:13:19.960Z,5.10
2018-08-09T15:15:47.427Z,4.30
2018-08-09T15:18:14.897Z,4.67
2018-08-09T15:20:42.445Z,7.17
2018-08-09T15:23:10.014Z,5.43
2018-08-09T15:25:37.469Z,4.30
2018-08-09T15:28:04.927Z,6.77
2018-08-09T15:30:32.495Z,8.10
2018-08-09T15:33:00.123Z,4.40
2018-08-09T15:35:27.629Z,5.33
2018-08-09T15:37:55.100Z,6.40
2018-08-09T15:40:22.664Z,7.80
2018-08-09T15:42:50.129Z,5.33
2018-08-09T15:45:17.583Z,5.17
2018-08-09T15:47:45.052Z,6.60
2018-08-09T15:50:12.595Z,7.60
2018-08-09T15:52:40.056Z,7.17
2018-08-09T15:55:07.520Z,3.63
2018-08-09T15:57:35.104Z,5.77
2018-08-09T16:00:02.564Z,7.03
2018-08-09T16:02:30.070Z,8.33
2018-08-09T16:04:57.479Z,8.73
2018-08-09T16:07:24.948Z,6.40
2018-08-09T16:09:52.411Z,8.17
2018-08-09T16:12:19.865Z,7.83
2018-08-09T16:14:47.327Z,9.50
2018-08-09T16:17:14.782Z,7.73
2018-08-09T16:19:42.447Z,7.23
2018-08-09T16:22:09.946Z,8.23
2018-08-09T16:24:38.158Z,9.13
2018-08-09T16:27:05.616Z,6.93
2018-08-09T16:29:33.078Z,6.47
2018-08-09T16:32:00.580Z,8.10
2018-08-09T16:34:28.134Z,8.85
2018-08-09T16:36:55.590Z,11.80
2018-08-09T16:39:23.057Z,7.77
2018-08-09T16:41:50.508Z,6.50
2018-08-09T16:44:17.993Z,6.83
2018-08-09T16:46:45.444Z,5.70
2018-08-09T16:49:12.900Z,6.47
2018-08-09T16:51:40.380Z,6.33
2018-08-09T16:54:07.834Z,9.53
2018-08-09T16:56:35.317Z,7.23
2018-08-09T16:59:02.780Z,10.50
2018-08-09T17:01:31.740Z,8.03
2018-08-09T17:03:59.206Z,8.67
2018-08-09T17:06:26.667Z,6.67
2018-08-09T17:08:54.138Z,9.07
2018-08-09T17:11:21.577Z,8.70
2018-08-09T17:13:49.073Z,10.00
2018-08-09T17:16:16.536Z,5.93
2018-08-09T17:18:44.095Z,7.27
2018-08-09T17:21:11.556Z,7.47
2018-08-09T17:23:39.120Z,9.93
2018-08-09T17:26:06.583Z,8.50
2018-08-09T17:28:34.143Z,8.40
2018-08-09T17:31:01.723Z,8.93
2018-08-09T17:33:29.275Z,10.57
2018-08-09T17:35:56.753Z,8.90
2018-08-09T17:38:24.203Z,10.00
2018-08-09T17:40:51.761Z,9.73
2018-08-09T17:43:19.348Z,9.53
2018-08-09T17:45:47.571Z,10.37
2018-08-09T17:48:15.082Z,10.83
2018-08-09T17:50:42.636Z,11.13
2018-08-09T17:53:10.100Z,9.67
2018-08-09T17:55:37.565Z,11.73
2018-08-09T17:58:05.026Z,11.47
2018-08-09T18:00:32.592Z,9.90
2018-08-09T18:03:00.169Z,12.07
2018-08-09T18:05:27.626Z,14.03
2018-08-09T18:07:55.187Z,11.73
2018-08-09T18:10:22.640Z,9.97
2018-08-09T18:12:50.100Z,10.20
2018-08-09T18:15:17.558Z,10.73
2018-08-09T18:17:45.186Z,11.17
2018-08-09T18:20:12.589Z,15.67
2018-08-09T18:22:40.058Z,12.53
2018-08-09T18:25:07.616Z,14.77
2018-08-09T18:27:35.080Z,12.27
2018-08-09T18:30:02.653Z,6.20
2018-08-09T18:32:30.250Z,4.13
2018-08-09T18:34:57.671Z,3.83
2018-08-09T18:37:25.244Z,4.90
2018-08-09T18:39:52.698Z,5.53
2018-08-09T18:42:20.159Z,3.23
2018-08-09T18:44:47.728Z,2.20
2018-08-09T18:47:15.198Z,3.50
2018-08-09T18:49:42.711Z,4.03
2018-08-09T18:52:10.129Z,2.30
2018-08-09T18:54:38.351Z,2.77
2018-08-09T18:57:05.854Z,2.37
2018-08-09T18:59:33.307Z,1.60
2018-08-09T19:02:00.771Z,1.20
2018-08-09T19:04:28.342Z,2.07
2018-08-09T19:06:55.806Z,4.50
2018-08-09T19:09:23.359Z,3.00
2018-08-09T19:11:50.927Z,2.43
2018-08-09T19:14:18.389Z,1.63
2018-08-09T19:16:45.849Z,5.07
2018-08-09T19:19:13.312Z,3.33
2018-08-09T19:21:40.890Z,2.37
2018-08-09T19:24:08.354Z,3.70
2018-08-09T19:26:35.808Z,4.37
2018-08-09T19:29:03.276Z,2.10
2018-08-09T19:31:30.737Z,2.83
2018-08-09T19:33:58.302Z,4.17
2018-08-09T19:36:25.864Z,2.03
2018-08-09T19:38:53.359Z,2.93
2018-08-09T19:41:20.780Z,3.73
2018-08-09T19:43:48.347Z,4.00
2018-08-09T19:46:15.779Z,3.87
2018-08-09T19:48:43.271Z,2.30
2018-08-09T19:51:10.742Z,1.93
2018-08-09T19:53:38.295Z,1.97
2018-08-09T19:56:05.749Z,1.23
2018-08-09T19:58:33.214Z,3.93
2018-08-09T20:01:00.689Z,1.90
2018-08-09T20:03:28.140Z,2.30
2018-08-09T20:05:55.604Z,1.73
2018-08-09T20:08:23.166Z,4.27
2018-08-09T20:10:50.619Z,2.73
2018-08-09T20:13:18.088Z,4.97
2018-08-09T20:15:45.534Z,3.23
2018-08-09T20:18:13.001Z,2.20
2018-08-09T20:20:40.455Z,4.67
2018-08-09T20:23:07.916Z,1.83
2018-08-09T20:25:35.405Z,2.17
2018-08-09T20:28:02.860Z,1.83
2018-08-09T20:30:30.319Z,1.73
2018-08-09T20:32:57.890Z,2.90
2018-08-09T20:35:25.453Z,3.73
2018-08-09T20:37:53.019Z,3.17
2018-08-09T20:40:20.572Z,1.33
2018-08-09T20:42:48.150Z,1.80
2018-08-09T20:45:15.665Z,4.13
2018-08-09T20:47:43.167Z,3.07
2018-08-09T20:50:10.634Z,1.13
2018-08-09T20:52:38.209Z,2.53
2018-08-09T20:55:05.660Z,4.00
2018-08-09T20:57:33.935Z,5.50
2018-08-09T21:00:01.493Z,1.50
2018-08-09T21:02:28.953Z,5.43
2018-08-09T21:04:56.451Z,4.20
2018-08-09T21:07:23.907Z,3.60
2018-08-09T21:09:51.348Z,1.80
2018-08-09T21:12:18.816Z,3.03
2018-08-09T21:14:46.374Z,1.50
2018-08-09T21:17:13.928Z,1.07
2018-08-09T21:19:41.393Z,3.47
2018-08-09T21:22:08.863Z,1.43
2018-08-09T21:24:36.430Z,2.60
2018-08-09T21:27:03.888Z,4.33
2018-08-09T21:29:31.459Z,3.40
2018-08-09T21:31:58.907Z,3.23
2018-08-09T21:34:26.377Z,4.13
2018-08-09T21:36:53.842Z,3.57
2018-08-09T21:39:21.299Z,1.20
2018-08-09T21:41:48.759Z,2.03
2018-08-09T21:44:16.236Z,3.00
2018-08-09T21:46:43.683Z,1.47
2018-08-09T21:49:11.156Z,1.93
2018-08-09T21:51:38.708Z,4.70
2018-08-09T21:54:06.162Z,2.73
2018-08-09T21:56:33.615Z,2.00
2018-08-09T21:59:01.071Z,6.53
2018-08-09T22:01:28.556Z,3.07
2018-08-09T22:03:56.034Z,3.53
2018-08-09T22:06:39.140Z,1.10
2018-08-09T22:12:14.735Z,2.50
2018-08-09T22:17:51.350Z,4.75
2018-08-09T22:20:35.568Z,2.37
2018-08-09T22:23:03.077Z,1.43
2018-08-09T22:25:30.545Z,3.37
2018-08-09T22:27:57.997Z,2.13
2018-08-09T22:30:25.566Z,2.10
2018-08-09T22:32:53.116Z,1.77
2018-08-09T22:35:20.583Z,2.97
2018-08-09T22:37:48.031Z,3.20
2018-08-09T22:40:15.492Z,3.30
2018-08-09T22:42:42.941Z,1.07
2018-08-09T22:45:10.406Z,4.13
2018-08-09T22:47:37.867Z,1.47
2018-08-09T22:50:05.321Z,1.87
2018-08-09T22:52:32.820Z,2.27
2018-08-09T22:55:00.288Z,2.17
2018-08-09T22:57:27.848Z,2.43
2018-08-09T22:59:55.308Z,2.63
2018-08-09T23:02:22.881Z,2.37
2018-08-09T23:04:50.339Z,1.60
2018-08-09T23:07:17.890Z,3.73
2018-08-09T23:09:45.463Z,0.97
2018-08-09T23:12:12.919Z,5.43
2018-08-09T23:14:40.368Z,2.37
2018-08-09T23:17:07.839Z,2.07
2018-08-09T23:19:35.314Z,2.87
2018-08-09T23:22:02.877Z,2.80
2018-08-09T23:24:30.330Z,0.70
2018-08-09T23:26:57.895Z,1.60
2018-08-09T23:29:25.361Z,5.03
2018-08-09T23:31:52.925Z,1.07
2018-08-09T23:34:20.392Z,1.87
2018-08-09T23:36:47.836Z,1.73
2018-08-09T23:39:15.314Z,2.17
2018-08-09T23:41:42.765Z,1.00
2018-08-09T23:44:10.329Z,3.03
2018-08-09T23:46:37.897Z,4.87
2018-08-09T23:49:05.465Z,4.57
2018-08-09T23:51:33.027Z,5.07
2018-08-09T23:54:00.588Z,3.87
2018-08-09T23:56:28.171Z,3.30
2018-08-09T23:58:55.720Z,0.80
